createdAt,value
2018-10-06T00:01:51.230Z,76.62
2018-10-06T00:04:20.039Z,76.47
2018-10-06T00:06:48.992Z,76.96
2018-10-06T00:09:17.818Z,77.64
2018-10-06T00:11:46.645Z,78.81
2018-10-06T00:14:15.439Z,78.55
2018-10-06T00:16:44.310Z,78.37
2018-10-06T00:19:13.067Z,79.71
2018-10-06T00:21:42.470Z,80.50
2018-10-06T00:24:11.386Z,79.42
2018-10-06T00:26:40.225Z,78.12
2018-10-06T00:29:08.996Z,78.56
2018-10-06T00:31:37.844Z,81.07
2018-10-06T00:34:06.511Z,80.37
2018-10-06T00:36:35.270Z,78.62
2018-10-06T00:39:04.529Z,78.04
2018-10-06T00:41:33.343Z,77.65
2018-10-06T00:44:02.039Z,77.65
2018-10-06T00:46:30.885Z,77.94
2018-10-06T00:48:59.571Z,77.91
2018-10-06T00:51:28.155Z,78.21
2018-10-06T00:53:56.831Z,77.96
2018-10-06T00:56:25.673Z,77.54
2018-10-06T00:58:54.504Z,77.59
2018-10-06T01:01:23.185Z,77.71
2018-10-06T01:03:51.901Z,77.68
2018-10-06T01:06:20.618Z,77.47
2018-10-06T01:08:49.430Z,77.51
2018-10-06T01:11:18.218Z,77.82
2018-10-06T01:13:47.208Z,77.77
2018-10-06T01:16:16.197Z,78.60
2018-10-06T01:18:45.021Z,77.62
2018-10-06T01:21:13.836Z,77.60
2018-10-06T01:23:42.588Z,77.56
2018-10-06T01:26:11.398Z,76.91
2018-10-06T01:28:40.117Z,77.23
2018-10-06T01:31:08.937Z,76.81
2018-10-06T01:33:37.788Z,77.17
2018-10-06T01:36:06.602Z,77.33
2018-10-06T01:38:35.498Z,77.10
2018-10-06T01:41:04.449Z,76.89
2018-10-06T01:43:33.397Z,78.04
2018-10-06T01:46:02.199Z,78.85
2018-10-06T01:48:31.048Z,78.91
2018-10-06T01:50:59.957Z,79.18
2018-10-06T01:53:28.674Z,78.79
2018-10-06T01:55:57.657Z,79.48
2018-10-06T01:58:27.768Z,78.95
2018-10-06T02:00:56.653Z,78.91
2018-10-06T02:03:25.729Z,79.02
2018-10-06T02:05:54.766Z,80.54
2018-10-06T02:08:24.681Z,81.82
2018-10-06T02:10:53.745Z,81.91
2018-10-06T02:13:22.537Z,81.42
2018-10-06T02:15:51.599Z,81.40
2018-10-06T02:18:21.269Z,80.44
2018-10-06T02:20:50.216Z,80.67
2018-10-06T02:23:19.063Z,82.00
2018-10-06T02:25:48.053Z,81.99
2018-10-06T02:28:16.675Z,81.40
2018-10-06T02:30:45.499Z,80.31
2018-10-06T02:33:14.339Z,79.14
2018-10-06T02:35:42.876Z,78.84
2018-10-06T02:38:11.717Z,79.79
2018-10-06T02:40:40.388Z,80.17
2018-10-06T02:43:09.273Z,79.54
2018-10-06T02:45:38.380Z,79.45
2018-10-06T02:48:07.232Z,78.99
2018-10-06T02:50:36.041Z,78.61
2018-10-06T02:53:04.660Z,79.73
2018-10-06T02:55:33.600Z,79.39
2018-10-06T02:58:03.228Z,78.90
2018-10-06T03:00:31.929Z,78.93
2018-10-06T03:03:01.601Z,78.79
2018-10-06T03:05:30.980Z,78.97
2018-10-06T03:08:00.490Z,79.30
2018-10-06T03:10:29.518Z,79.45
2018-10-06T03:12:58.247Z,79.83
2018-10-06T03:15:27.671Z,79.77
2018-10-06T03:17:56.371Z,79.35
2018-10-06T03:20:25.097Z,79.19
2018-10-06T03:22:54.750Z,79.07
2018-10-06T03:25:23.575Z,78.25
2018-10-06T03:27:52.568Z,77.93
2018-10-06T03:30:21.278Z,77.38
2018-10-06T03:32:50.100Z,78.67
2018-10-06T03:35:19.084Z,79.19
2018-10-06T03:37:48.053Z,79.46
2018-10-06T03:40:16.802Z,78.74
2018-10-06T03:42:46.730Z,77.89
2018-10-06T03:45:15.447Z,77.82
2018-10-06T03:47:44.245Z,77.72
2018-10-06T03:50:12.857Z,78.68
2018-10-06T03:52:41.659Z,78.13
2018-10-06T03:55:10.360Z,77.79
2018-10-06T03:57:39.284Z,78.82
2018-10-06T04:00:07.932Z,79.34
2018-10-06T04:02:36.742Z,80.33
2018-10-06T04:05:05.696Z,80.60
2018-10-06T04:07:34.530Z,80.64
2018-10-06T04:10:03.147Z,80.87
2018-10-06T04:12:31.948Z,81.81
2018-10-06T04:15:00.777Z,81.74
2018-10-06T04:17:29.328Z,81.34
2018-10-06T04:19:58.492Z,80.69
2018-10-06T04:22:27.317Z,79.12
2018-10-06T04:24:56.196Z,79.01
2018-10-06T04:27:25.040Z,79.82
2018-10-06T04:29:54.025Z,82.86
2018-10-06T04:32:22.848Z,82.92
2018-10-06T04:34:51.805Z,83.63
2018-10-06T04:37:20.637Z,84.58
2018-10-06T04:39:49.579Z,83.84
2018-10-06T04:42:18.420Z,82.79
2018-10-06T04:44:47.268Z,82.92
2018-10-06T04:47:16.102Z,83.12
2018-10-06T04:49:44.920Z,82.82
2018-10-06T04:52:13.729Z,81.78
2018-10-06T04:54:42.577Z,81.42
2018-10-06T04:57:11.387Z,81.79
2018-10-06T04:59:40.276Z,82.06
2018-10-06T05:02:09.108Z,82.16
2018-10-06T05:04:38.089Z,82.83
2018-10-06T05:07:07.098Z,82.15
2018-10-06T05:09:35.714Z,82.03
2018-10-06T05:12:04.671Z,82.83
2018-10-06T05:14:33.543Z,82.45
2018-10-06T05:17:02.320Z,81.89
2018-10-06T05:19:31.265Z,80.97
2018-10-06T05:22:00.096Z,80.21
2018-10-06T05:24:28.990Z,79.86
2018-10-06T05:26:57.730Z,79.31
2018-10-06T05:29:26.606Z,79.58
2018-10-06T05:31:55.469Z,79.43
2018-10-06T05:34:24.169Z,78.51
2018-10-06T05:36:53.020Z,78.67
2018-10-06T05:39:21.895Z,78.54
2018-10-06T05:41:50.883Z,78.42
2018-10-06T05:44:19.627Z,78.49
2018-10-06T05:46:48.512Z,77.80
2018-10-06T05:49:17.376Z,77.82
2018-10-06T05:51:46.208Z,77.35
2018-10-06T05:54:15.018Z,77.22
2018-10-06T05:56:43.869Z,77.33
2018-10-06T05:59:12.765Z,76.81
2018-10-06T06:01:41.358Z,76.42
2018-10-06T06:04:10.187Z,75.66
2018-10-06T06:06:39.050Z,75.70
2018-10-06T06:09:08.241Z,74.59
2018-10-06T06:11:37.125Z,75.41
2018-10-06T06:14:05.946Z,74.30
2018-10-06T06:16:34.840Z,73.32
2018-10-06T06:19:03.561Z,73.40
2018-10-06T06:21:32.182Z,72.47
2018-10-06T06:24:00.900Z,71.93
2018-10-06T06:26:29.763Z,71.46
2018-10-06T06:28:58.681Z,70.87
2018-10-06T06:31:27.749Z,70.69
2018-10-06T06:33:56.226Z,70.04
2018-10-06T06:36:25.083Z,69.31
2018-10-06T06:38:53.891Z,68.40
2018-10-06T06:41:22.754Z,67.22
2018-10-06T06:43:51.528Z,66.90
2018-10-06T06:46:20.332Z,66.53
2018-10-06T06:48:49.153Z,67.24
2018-10-06T06:51:18.134Z,66.75
2018-10-06T06:53:46.964Z,66.44
2018-10-06T06:56:15.872Z,66.09
2018-10-06T06:58:44.758Z,65.18
2018-10-06T07:01:13.472Z,64.81
2018-10-06T07:03:42.261Z,64.04
2018-10-06T07:06:11.260Z,63.34
2018-10-06T07:08:40.069Z,64.36
2018-10-06T07:11:08.834Z,63.05
2018-10-06T07:13:37.871Z,59.47
2018-10-06T07:16:07.009Z,54.89
2018-10-06T07:18:36.252Z,50.06
2018-10-06T07:21:05.257Z,44.98
2018-10-06T07:23:34.086Z,40.08
2018-10-06T07:26:03.045Z,35.21
2018-10-06T07:28:31.973Z,32.64
2018-10-06T07:31:00.752Z,32.27
2018-10-06T07:33:29.580Z,32.60
2018-10-06T07:35:58.381Z,32.38
2018-10-06T07:38:27.217Z,31.64
2018-10-06T07:40:55.800Z,32.01
2018-10-06T07:43:24.647Z,29.87
2018-10-06T07:45:53.389Z,28.34
2018-10-06T07:48:22.278Z,25.99
2018-10-06T07:50:51.857Z,25.17
2018-10-06T07:53:20.679Z,31.47
2018-10-06T07:55:49.496Z,36.95
2018-10-06T07:58:18.422Z,40.37
2018-10-06T08:00:47.160Z,41.46
2018-10-06T08:03:16.016Z,42.70
2018-10-06T08:05:44.833Z,42.24
2018-10-06T08:08:13.573Z,39.32
2018-10-06T08:10:42.268Z,41.40
2018-10-06T08:13:11.002Z,38.11
2018-10-06T08:15:39.810Z,34.52
2018-10-06T08:18:08.657Z,31.63
2018-10-06T08:20:37.470Z,31.85
2018-10-06T08:23:06.372Z,34.52
2018-10-06T08:25:35.068Z,32.55
2018-10-06T08:28:03.928Z,34.61
2018-10-06T08:30:32.753Z,36.08
2018-10-06T08:33:01.727Z,38.28
2018-10-06T08:35:30.431Z,42.20
2018-10-06T08:37:59.367Z,45.97
2018-10-06T08:40:28.054Z,48.93
2018-10-06T08:42:56.908Z,52.12
2018-10-06T08:45:25.630Z,51.92
2018-10-06T08:47:54.369Z,52.74
2018-10-06T08:50:23.105Z,54.28
2018-10-06T08:52:51.957Z,55.44
2018-10-06T08:55:20.544Z,56.23
2018-10-06T08:57:49.827Z,56.88
2018-10-06T09:00:18.747Z,55.46
2018-10-06T09:02:47.672Z,55.93
2018-10-06T09:05:16.514Z,57.20
2018-10-06T09:07:45.368Z,57.58
2018-10-06T09:10:14.185Z,57.66
2018-10-06T09:12:43.221Z,56.93
2018-10-06T09:15:12.084Z,57.64
2018-10-06T09:17:40.903Z,58.16
2018-10-06T09:20:09.886Z,58.63
2018-10-06T09:22:38.665Z,57.95
2018-10-06T09:25:07.784Z,54.98
2018-10-06T09:27:36.534Z,55.11
2018-10-06T09:30:05.273Z,53.91
2018-10-06T09:34:03.229Z,52.52
2018-10-06T09:36:31.960Z,51.60
2018-10-06T09:39:00.872Z,52.51
2018-10-06T09:41:29.745Z,51.46
2018-10-06T09:43:59.238Z,50.47
2018-10-06T09:46:28.062Z,47.49
2018-10-06T09:48:57.042Z,46.77
2018-10-06T09:51:26.013Z,45.42
2018-10-06T09:53:55.001Z,43.48
2018-10-06T09:56:23.889Z,41.32
2018-10-06T09:58:52.636Z,41.48
2018-10-06T10:01:26.706Z,41.97
2018-10-06T10:04:00.795Z,43.22
2018-10-06T10:06:29.624Z,42.12
2018-10-06T10:08:58.445Z,42.59
2018-10-06T10:11:27.291Z,43.63
2018-10-06T10:13:56.299Z,44.27
2018-10-06T10:16:25.165Z,44.53
2018-10-06T10:18:54.041Z,44.19
2018-10-06T10:21:22.884Z,42.50
2018-10-06T10:23:52.257Z,42.37
2018-10-06T10:26:21.191Z,42.83
2018-10-06T10:28:50.242Z,43.38
2018-10-06T10:31:19.108Z,44.31
2018-10-06T10:33:48.160Z,45.55
2018-10-06T10:36:16.997Z,44.87
2018-10-06T10:38:46.013Z,44.53
2018-10-06T10:41:15.174Z,41.85
2018-10-06T10:43:44.579Z,40.08
2018-10-06T10:46:13.499Z,41.41
2018-10-06T10:48:42.429Z,41.62
2018-10-06T10:51:11.338Z,42.68
2018-10-06T10:53:41.970Z,42.97
2018-10-06T10:56:11.607Z,42.28
2018-10-06T10:58:41.366Z,42.40
2018-10-06T11:01:10.163Z,40.31
2018-10-06T11:03:38.978Z,40.77
2018-10-06T11:06:07.872Z,41.75
2018-10-06T11:08:36.573Z,40.90
2018-10-06T11:11:05.544Z,41.25
2018-10-06T11:13:34.965Z,40.11
2018-10-06T11:16:03.684Z,42.37
2018-10-06T11:18:32.485Z,43.46
2018-10-06T11:21:01.358Z,44.18
2018-10-06T11:23:30.155Z,43.73
2018-10-06T11:25:58.909Z,43.97
2018-10-06T11:28:27.736Z,42.06
2018-10-06T11:30:56.585Z,40.12
2018-10-06T11:33:25.397Z,37.96
2018-10-06T11:35:54.415Z,36.57
2018-10-06T11:38:23.311Z,36.50
2018-10-06T11:40:52.171Z,35.32
2018-10-06T11:43:21.218Z,33.89
2018-10-06T11:45:50.061Z,34.42
2018-10-06T11:48:18.783Z,36.57
2018-10-06T11:50:47.787Z,38.07
2018-10-06T11:53:16.872Z,37.61
2018-10-06T11:55:45.858Z,38.08
2018-10-06T11:58:14.825Z,38.57
2018-10-06T12:00:43.767Z,37.51
2018-10-06T12:03:12.644Z,38.02
2018-10-06T12:05:41.528Z,38.88
2018-10-06T12:08:10.240Z,38.19
2018-10-06T12:10:39.118Z,39.06
2018-10-06T12:13:07.926Z,40.48
2018-10-06T12:15:36.637Z,39.04
2018-10-06T12:18:06.371Z,37.59
2018-10-06T12:20:35.538Z,39.37
2018-10-06T12:23:24.804Z,40.58
2018-10-06T12:28:58.664Z,39.29
2018-10-06T12:31:33.093Z,38.46
2018-10-06T12:34:11.405Z,37.47
2018-10-06T12:36:44.297Z,36.01
2018-10-06T12:39:13.976Z,35.75
2018-10-06T12:41:56.319Z,36.55
2018-10-06T12:44:25.011Z,36.64
2018-10-06T12:46:53.867Z,38.58
2018-10-06T12:49:22.877Z,39.60
2018-10-06T12:52:06.825Z,41.73
2018-10-06T12:54:37.375Z,41.50
2018-10-06T12:57:06.969Z,41.78
2018-10-06T12:59:36.727Z,42.31
2018-10-06T13:02:05.672Z,41.96
2018-10-06T13:04:35.947Z,42.11
2018-10-06T13:07:06.885Z,41.91
2018-10-06T13:09:37.825Z,43.93
2018-10-06T13:12:06.929Z,41.93
2018-10-06T13:14:35.597Z,42.31
2018-10-06T13:17:04.343Z,42.05
2018-10-06T13:19:32.900Z,41.08
2018-10-06T13:22:01.588Z,43.86
2018-10-06T13:24:30.671Z,42.30
2018-10-06T13:27:00.704Z,42.75
2018-10-06T13:29:29.813Z,43.26
2018-10-06T13:32:00.253Z,42.92
2018-10-06T13:34:30.826Z,44.05
2018-10-06T13:37:00.705Z,44.45
2018-10-06T13:39:29.401Z,44.70
2018-10-06T13:41:58.316Z,44.34
2018-10-06T13:44:27.096Z,42.44
2018-10-06T13:46:55.970Z,43.04
2018-10-06T13:49:24.878Z,42.64
2018-10-06T13:51:53.606Z,42.92
2018-10-06T13:54:22.301Z,42.28
2018-10-06T13:56:51.227Z,42.24
2018-10-06T13:59:20.020Z,40.93
2018-10-06T14:01:48.805Z,40.88
2018-10-06T14:04:17.658Z,38.76
2018-10-06T14:06:46.257Z,36.87
2018-10-06T14:09:14.976Z,36.75
2018-10-06T14:11:43.780Z,36.51
2018-10-06T14:14:12.646Z,36.18
2018-10-06T14:16:41.294Z,35.20
2018-10-06T14:19:10.121Z,36.79
2018-10-06T14:21:38.892Z,36.28
2018-10-06T14:24:07.701Z,36.20
2018-10-06T14:26:36.363Z,35.37
2018-10-06T14:29:05.177Z,35.31
2018-10-06T14:31:33.842Z,34.28
2018-10-06T14:34:02.537Z,34.09
2018-10-06T14:36:31.249Z,34.85
2018-10-06T14:39:00.077Z,34.42
2018-10-06T14:41:29.260Z,34.74
2018-10-06T14:43:58.094Z,36.75
2018-10-06T14:46:26.762Z,38.08
2018-10-06T14:48:55.573Z,39.35
2018-10-06T14:51:24.341Z,38.68
2018-10-06T14:53:53.029Z,40.03
2018-10-06T14:56:21.929Z,40.71
2018-10-06T14:58:50.740Z,40.85
2018-10-06T15:01:19.613Z,41.73
2018-10-06T15:03:48.555Z,42.37
2018-10-06T15:06:17.255Z,43.12
2018-10-06T15:08:45.948Z,43.87
2018-10-06T15:11:14.767Z,43.98
2018-10-06T15:13:43.609Z,43.53
2018-10-06T15:16:12.303Z,42.82
2018-10-06T15:18:41.843Z,41.97
2018-10-06T15:21:10.613Z,41.11
2018-10-06T15:23:39.453Z,40.27
2018-10-06T15:26:08.255Z,39.96
2018-10-06T15:28:36.838Z,40.68
2018-10-06T15:31:05.630Z,40.84
2018-10-06T15:33:34.324Z,41.17
2018-10-06T15:36:03.018Z,41.00
2018-10-06T15:38:31.846Z,41.33
2018-10-06T15:41:00.650Z,41.31
2018-10-06T15:43:29.521Z,40.40
2018-10-06T15:45:58.366Z,41.82
2018-10-06T15:48:27.149Z,41.80
2018-10-06T15:50:55.887Z,42.62
2018-10-06T15:53:24.669Z,44.26
2018-10-06T15:55:53.489Z,46.01
2018-10-06T15:58:22.148Z,47.39
2018-10-06T16:00:50.991Z,46.58
2018-10-06T16:03:19.757Z,48.28
2018-10-06T16:05:48.466Z,47.18
2018-10-06T16:08:17.244Z,48.11
2018-10-06T16:10:45.924Z,48.20
2018-10-06T16:13:14.499Z,50.74
2018-10-06T16:15:43.229Z,49.07
2018-10-06T16:18:12.021Z,50.56
2018-10-06T16:20:40.832Z,51.58
2018-10-06T16:23:09.493Z,50.27
2018-10-06T16:25:38.204Z,51.44
2018-10-06T16:28:06.915Z,52.86
2018-10-06T16:30:35.743Z,52.37
2018-10-06T16:33:04.445Z,52.40
2018-10-06T16:35:33.281Z,53.30
2018-10-06T16:38:02.012Z,52.53
2018-10-06T16:40:30.982Z,52.44
2018-10-06T16:42:59.834Z,51.91
2018-10-06T16:45:28.516Z,51.97
2018-10-06T16:47:57.388Z,52.61
2018-10-06T16:50:26.243Z,52.88
2018-10-06T16:52:55.699Z,54.03
2018-10-06T16:55:24.456Z,54.23
2018-10-06T16:57:53.129Z,54.51
2018-10-06T17:00:21.889Z,55.13
2018-10-06T17:02:51.152Z,54.77
2018-10-06T17:05:20.428Z,54.97
2018-10-06T17:07:49.215Z,55.50
2018-10-06T17:10:18.009Z,55.66
2018-10-06T17:12:46.995Z,56.08
2018-10-06T17:15:15.789Z,57.30
2018-10-06T17:17:44.630Z,56.95
2018-10-06T17:20:13.364Z,57.49
2018-10-06T17:22:42.833Z,57.87
2018-10-06T17:25:11.636Z,58.05
2018-10-06T17:27:40.778Z,59.27
2018-10-06T17:30:10.390Z,59.58
2018-10-06T17:32:39.174Z,60.06
2018-10-06T17:35:07.886Z,60.96
2018-10-06T17:37:36.690Z,61.21
2018-10-06T17:40:05.380Z,61.90
2018-10-06T17:42:34.064Z,62.33
2018-10-06T17:45:02.765Z,63.01
2018-10-06T17:47:31.648Z,62.97
2018-10-06T17:50:00.567Z,62.79
2018-10-06T17:52:30.189Z,62.89
2018-10-06T17:54:58.868Z,63.44
2018-10-06T17:57:27.666Z,63.83
2018-10-06T17:59:56.747Z,63.87
2018-10-06T18:02:25.922Z,63.90
2018-10-06T18:04:54.913Z,64.07
2018-10-06T18:07:23.702Z,64.25
2018-10-06T18:09:52.395Z,64.26
2018-10-06T18:12:23.878Z,64.56
2018-10-06T18:14:53.028Z,64.22
2018-10-06T18:17:21.793Z,64.85
2018-10-06T18:19:50.381Z,64.76
2018-10-06T18:22:19.269Z,65.23
2018-10-06T18:24:48.279Z,65.11
2018-10-06T18:27:17.126Z,65.17
2018-10-06T18:29:46.102Z,65.46
2018-10-06T18:32:14.774Z,65.25
2018-10-06T18:34:43.426Z,65.30
2018-10-06T18:37:12.289Z,65.47
2018-10-06T18:39:41.089Z,65.63
2018-10-06T18:42:09.905Z,65.72
2018-10-06T18:44:38.768Z,65.42
2018-10-06T18:47:07.666Z,65.59
2018-10-06T18:49:36.420Z,65.58
2018-10-06T18:52:05.486Z,65.45
2018-10-06T18:54:34.164Z,65.39
2018-10-06T18:57:02.930Z,65.59
2018-10-06T18:59:31.769Z,65.98
2018-10-06T19:02:00.740Z,66.93
2018-10-06T19:04:29.717Z,67.59
2018-10-06T19:06:58.464Z,67.41
2018-10-06T19:09:27.347Z,67.77
2018-10-06T19:11:56.310Z,67.85
2018-10-06T19:14:25.245Z,67.63
2018-10-06T19:16:54.134Z,67.99
2018-10-06T19:19:23.078Z,67.98
2018-10-06T19:21:51.909Z,67.91
2018-10-06T19:24:20.632Z,68.47
2018-10-06T19:26:49.554Z,69.14
2018-10-06T19:29:18.374Z,68.98
2018-10-06T19:31:47.283Z,69.59
2018-10-06T19:34:16.112Z,69.71
2018-10-06T19:36:44.942Z,69.48
2018-10-06T19:39:13.758Z,70.15
2018-10-06T19:41:42.615Z,69.84
2018-10-06T19:44:11.457Z,70.43
2018-10-06T19:46:40.033Z,70.51
2018-10-06T19:49:08.757Z,70.66
2018-10-06T19:51:37.639Z,70.75
2018-10-06T19:54:06.444Z,71.05
2018-10-06T19:56:35.159Z,71.25
2018-10-06T19:59:03.759Z,71.18
2018-10-06T20:01:32.561Z,70.62
2018-10-06T20:04:01.491Z,71.03
2018-10-06T20:06:30.293Z,71.12
2018-10-06T20:08:59.107Z,71.21
2018-10-06T20:11:27.816Z,71.12
2018-10-06T20:13:56.685Z,70.83
2018-10-06T20:16:25.509Z,70.72
2018-10-06T20:18:55.486Z,70.67
2018-10-06T20:21:24.310Z,70.68
2018-10-06T20:23:53.138Z,70.36
2018-10-06T20:26:21.844Z,70.50
2018-10-06T20:28:50.700Z,72.05
2018-10-06T20:31:19.567Z,73.82
2018-10-06T20:33:48.745Z,73.79
2018-10-06T20:36:17.681Z,73.45
2018-10-06T20:38:46.903Z,72.93
2018-10-06T20:41:15.708Z,72.41
2018-10-06T20:43:44.432Z,72.09
2018-10-06T20:46:13.461Z,71.78
2018-10-06T20:48:42.753Z,71.93
2018-10-06T20:51:11.805Z,72.04
2018-10-06T20:53:40.662Z,71.60
2018-10-06T20:56:09.521Z,71.75
2018-10-06T20:58:38.376Z,71.49
2018-10-06T21:01:07.082Z,72.07
2018-10-06T21:03:35.953Z,71.75
2018-10-06T21:06:04.722Z,71.30
2018-10-06T21:08:33.584Z,71.46
2018-10-06T21:11:04.593Z,71.46
2018-10-06T21:13:33.443Z,71.52
2018-10-06T21:16:02.989Z,71.57
2018-10-06T21:18:35.409Z,71.34
2018-10-06T21:21:04.153Z,71.45
2018-10-06T21:23:33.776Z,71.27
2018-10-06T21:26:02.582Z,71.52
2018-10-06T21:28:31.596Z,71.59
2018-10-06T21:31:01.845Z,71.72
2018-10-06T21:33:30.933Z,71.65
2018-10-06T21:35:59.882Z,72.28
2018-10-06T21:38:28.591Z,72.05
2018-10-06T21:40:58.870Z,72.41
2018-10-06T21:43:27.574Z,72.32
2018-10-06T21:45:57.669Z,72.30
2018-10-06T21:48:26.973Z,72.33
2018-10-06T21:50:56.036Z,72.27
2018-10-06T21:53:24.884Z,72.03
2018-10-06T21:55:54.141Z,71.82
2018-10-06T21:58:23.871Z,71.90
2018-10-06T22:01:09.746Z,71.65
2018-10-06T22:03:39.312Z,72.04
2018-10-06T22:06:08.154Z,73.04
2018-10-06T22:08:37.570Z,73.04
2018-10-06T22:11:06.962Z,73.17
2018-10-06T22:13:35.885Z,72.64
2018-10-06T22:16:04.882Z,72.53
2018-10-06T22:18:33.720Z,72.16
2018-10-06T22:21:02.685Z,72.39
2018-10-06T22:23:31.611Z,72.78
2018-10-06T22:26:00.440Z,73.38
2018-10-06T22:28:32.821Z,74.55
2018-10-06T22:31:01.832Z,74.25
2018-10-06T22:33:30.677Z,73.61
2018-10-06T22:36:00.240Z,73.51
2018-10-06T22:38:29.269Z,73.22
2018-10-06T22:40:58.130Z,72.95
2018-10-06T22:43:27.022Z,72.92
2018-10-06T22:45:55.960Z,72.53
2018-10-06T22:48:26.810Z,72.28
2018-10-06T22:50:55.740Z,72.07
2018-10-06T22:53:24.377Z,71.86
2018-10-06T22:55:53.116Z,72.05
2018-10-06T22:58:22.917Z,72.84
2018-10-06T23:00:51.670Z,73.21
2018-10-06T23:03:20.556Z,73.08
2018-10-06T23:05:49.128Z,72.70
2018-10-06T23:08:18.377Z,72.99
2018-10-06T23:10:47.208Z,72.99
2018-10-06T23:13:16.057Z,72.65
2018-10-06T23:15:45.386Z,72.69
2018-10-06T23:18:14.071Z,72.63
2018-10-06T23:20:43.061Z,72.79
2018-10-06T23:23:11.882Z,72.73
2018-10-06T23:25:40.713Z,72.51
2018-10-06T23:28:09.452Z,72.72
2018-10-06T23:30:38.401Z,72.72
2018-10-06T23:33:07.503Z,72.68
2018-10-06T23:35:36.429Z,73.35
2018-10-06T23:38:05.475Z,72.94
2018-10-06T23:40:34.229Z,73.43
2018-10-06T23:43:03.071Z,73.46
2018-10-06T23:45:31.896Z,73.59
2018-10-06T23:48:00.598Z,73.41
2018-10-06T23:50:29.333Z,73.09
2018-10-06T23:52:58.285Z,73.79
2018-10-06T23:55:27.356Z,73.37
2018-10-06T23:57:56.213Z,73.49
